sensor_id;sensor_type;location;lat;lon;timestamp;pressure;altitude;pressure_sealevel;temperature;humidity
17525;BME280;40431;52.198;9.902;2023-03-22T00:01:10;100223.91;;;9.37;100.00
17525;BME280;40431;52.198;9.902;2023-03-22T00:03:38;100220.44;;;9.35;100.00
17525;BME280;40431;52.198;9.902;2023-03-22T00:06:05;100215.19;;;9.32;100.00
17525;BME280;40431;52.198;9.902;2023-03-22T00:08:32;100217.84;;;9.33;100.00
17525;BME280;40431;52.198;9.902;2023-03-22T00:10:58;100223.31;;;9.32;100.00
17525;BME280;40431;52.198;9.902;2023-03-22T00:13:25;100224.47;;;9.28;100.00
17525;BME280;40431;52.198;9.902;2023-03-22T00:15:51;100216.75;;;9.22;100.00
17525;BME280;40431;52.198;9.902;2023-03-22T00:18:19;100212.50;;;9.17;100.00
17525;BME280;40431;52.198;9.902;2023-03-22T00:20:48;100221.38;;;9.19;100.00
17525;BME280;40431;52.198;9.902;2023-03-22T00:23:14;100215.84;;;9.21;100.00
17525;BME280;40431;52.198;9.902;2023-03-22T00:25:42;100212.66;;;9.14;100.00
17525;BME280;40431;52.198;9.902;2023-03-22T00:28:08;100211.69;;;9.15;100.00
17525;BME280;40431;52.198;9.902;2023-03-22T00:30:35;100212.25;;;9.06;100.00
17525;BME280;40431;52.198;9.902;2023-03-22T00:33:01;100214.25;;;9.02;100.00
17525;BME280;40431;52.198;9.902;2023-03-22T00:35:28;100212.72;;;8.98;100.00
17525;BME280;40431;52.198;9.902;2023-03-22T00:37:55;100207.50;;;8.95;100.00
17525;BME280;40431;52.198;9.902;2023-03-22T00:40:30;100209.69;;;8.89;100.00
17525;BME280;40431;52.198;9.902;2023-03-22T00:42:56;100203.59;;;8.85;100.00
17525;BME280;40431;52.198;9.902;2023-03-22T00:45:22;100199.44;;;8.79;100.00
17525;BME280;40431;52.198;9.902;2023-03-22T00:47:49;100198.63;;;8.77;100.00
17525;BME280;40431;52.198;9.902;2023-03-22T00:50:15;100193.31;;;8.76;100.00
17525;BME280;40431;52.198;9.902;2023-03-22T00:52:41;100193.22;;;8.77;100.00
17525;BME280;40431;52.198;9.902;2023-03-22T00:55:09;100191.66;;;8.73;100.00
17525;BME280;40431;52.198;9.902;2023-03-22T00:57:35;100190.13;;;8.69;100.00
17525;BME280;40431;52.198;9.902;2023-03-22T01:00:02;100186.44;;;8.70;100.00
17525;BME280;40431;52.198;9.902;2023-03-22T01:02:34;100189.16;;;8.70;100.00
17525;BME280;40431;52.198;9.902;2023-03-22T01:05:00;100185.84;;;8.65;100.00
17525;BME280;40431;52.198;9.902;2023-03-22T01:07:27;100183.25;;;8.63;100.00
17525;BME280;40431;52.198;9.902;2023-03-22T01:09:53;100175.13;;;8.63;100.00
17525;BME280;40431;52.198;9.902;2023-03-22T01:12:20;100178.25;;;8.72;100.00
17525;BME280;40431;52.198;9.902;2023-03-22T01:14:47;100173.34;;;8.78;100.00
17525;BME280;40431;52.198;9.902;2023-03-22T01:17:13;100169.69;;;8.79;100.00
17525;BME280;40431;52.198;9.902;2023-03-22T01:19:40;100164.28;;;8.79;100.00
17525;BME280;40431;52.198;9.902;2023-03-22T01:22:07;100162.34;;;8.81;100.00
17525;BME280;40431;52.198;9.902;2023-03-22T01:24:33;100159.63;;;8.81;100.00
17525;BME280;40431;52.198;9.902;2023-03-22T01:27:00;100153.97;;;8.86;100.00
17525;BME280;40431;52.198;9.902;2023-03-22T01:29:27;100153.97;;;8.86;100.00
17525;BME280;40431;52.198;9.902;2023-03-22T01:31:55;100157.38;;;8.90;100.00
17525;BME280;40431;52.198;9.902;2023-03-22T01:34:21;100149.63;;;8.83;100.00
17525;BME280;40431;52.198;9.902;2023-03-22T01:36:48;100155.97;;;8.82;100.00
17525;BME280;40431;52.198;9.902;2023-03-22T01:39:15;100156.78;;;8.84;100.00
17525;BME280;40431;52.198;9.902;2023-03-22T01:41:41;100155.63;;;8.89;100.00
17525;BME280;40431;52.198;9.902;2023-03-22T01:44:10;100155.72;;;8.87;100.00
17525;BME280;40431;52.198;9.902;2023-03-22T01:46:39;100148.56;;;8.86;100.00
17525;BME280;40431;52.198;9.902;2023-03-22T01:49:08;100154.72;;;8.88;100.00
17525;BME280;40431;52.198;9.902;2023-03-22T01:51:37;100153.78;;;8.89;100.00
17525;BME280;40431;52.198;9.902;2023-03-22T01:54:06;100150.41;;;8.85;100.00
17525;BME280;40431;52.198;9.902;2023-03-22T01:56:36;100142.19;;;8.87;100.00
17525;BME280;40431;52.198;9.902;2023-03-22T01:59:05;100140.34;;;8.88;100.00
17525;BME280;40431;52.198;9.902;2023-03-22T02:01:33;100145.75;;;8.88;100.00
17525;BME280;40431;52.198;9.902;2023-03-22T02:04:04;100140.34;;;8.88;100.00
17525;BME280;40431;52.198;9.902;2023-03-22T02:06:32;100130.59;;;8.85;100.00
17525;BME280;40431;52.198;9.902;2023-03-22T02:09:03;100131.47;;;8.85;100.00
17525;BME280;40431;52.198;9.902;2023-03-22T02:11:32;100129.72;;;8.84;100.00
17525;BME280;40431;52.198;9.902;2023-03-22T02:14:08;100130.59;;;8.85;100.00
17525;BME280;40431;52.198;9.902;2023-03-22T02:16:47;100125.66;;;8.77;100.00
17525;BME280;40431;52.198;9.902;2023-03-22T02:22:41;100118.22;;;8.81;100.00
17525;BME280;40431;52.198;9.902;2023-03-22T02:25:31;100123.94;;;8.91;100.00
17525;BME280;40431;52.198;9.902;2023-03-22T02:28:12;100118.72;;;8.88;100.00
17525;BME280;40431;52.198;9.902;2023-03-22T02:30:55;100124.81;;;8.91;100.00
17525;BME280;40431;52.198;9.902;2023-03-22T02:33:39;100121.44;;;8.88;100.00
17525;BME280;40431;52.198;9.902;2023-03-22T02:36:27;100119.78;;;8.85;100.00
17525;BME280;40431;52.198;9.902;2023-03-22T02:39:21;100119.78;;;8.85;100.00
17525;BME280;40431;52.198;9.902;2023-03-22T02:42:06;100114.88;;;8.92;100.00
17525;BME280;40431;52.198;9.902;2023-03-22T02:44:40;100108.59;;;8.91;100.00
17525;BME280;40431;52.198;9.902;2023-03-22T02:47:12;100117.66;;;8.90;100.00
17525;BME280;40431;52.198;9.902;2023-03-22T02:49:51;100117.16;;;8.83;100.00
17525;BME280;40431;52.198;9.902;2023-03-22T02:52:26;100116.03;;;8.88;100.00
17525;BME280;40431;52.198;9.902;2023-03-22T02:55:02;100107.91;;;8.88;100.00
17525;BME280;40431;52.198;9.902;2023-03-22T02:57:34;100111.19;;;8.93;100.00
17525;BME280;40431;52.198;9.902;2023-03-22T03:00:04;100111.41;;;8.90;100.00
17525;BME280;40431;52.198;9.902;2023-03-22T03:02:33;100120.09;;;8.95;100.00
17525;BME280;40431;52.198;9.902;2023-03-22T03:05:00;100116.41;;;8.96;100.00
17525;BME280;40431;52.198;9.902;2023-03-22T03:07:29;100118.34;;;8.94;100.00
17525;BME280;40431;52.198;9.902;2023-03-22T03:09:57;100116.63;;;8.93;100.00
17525;BME280;40431;52.198;9.902;2023-03-22T03:12:25;100118.16;;;8.97;100.00
17525;BME280;40431;52.198;9.902;2023-03-22T03:14:52;100114.28;;;9.01;100.00
17525;BME280;40431;52.198;9.902;2023-03-22T03:17:26;100115.84;;;9.05;100.00
17525;BME280;40431;52.198;9.902;2023-03-22T03:20:03;100103.69;;;9.12;100.00
17525;BME280;40431;52.198;9.902;2023-03-22T03:22:42;100105.41;;;9.13;100.00
17525;BME280;40431;52.198;9.902;2023-03-22T03:25:17;100103.69;;;9.12;100.00
17525;BME280;40431;52.198;9.902;2023-03-22T03:27:49;100101.16;;;9.09;100.00
17525;BME280;40431;52.198;9.902;2023-03-22T03:30:24;100101.94;;;9.11;100.00
17525;BME280;40431;52.198;9.902;2023-03-22T03:32:57;100106.41;;;9.12;100.00
17525;BME280;40431;52.198;9.902;2023-03-22T03:35:28;100108.31;;;9.10;100.00
17525;BME280;40431;52.198;9.902;2023-03-22T03:38:01;100106.19;;;9.15;100.00
17525;BME280;40431;52.198;9.902;2023-03-22T03:40:32;100090.75;;;9.17;100.00
17525;BME280;40431;52.198;9.902;2023-03-22T03:43:02;100094.31;;;9.18;100.00
17525;BME280;40431;52.198;9.902;2023-03-22T03:45:29;100088.91;;;9.18;100.00
17525;BME280;40431;52.198;9.902;2023-03-22T03:47:59;100086.47;;;9.13;100.00
17525;BME280;40431;52.198;9.902;2023-03-22T03:50:27;100090.19;;;9.12;100.00
17525;BME280;40431;52.198;9.902;2023-03-22T03:52:54;100090.34;;;9.09;100.00
17525;BME280;40431;52.198;9.902;2023-03-22T03:55:22;100081.56;;;9.06;100.00
17525;BME280;40431;52.198;9.902;2023-03-22T03:57:50;100083.50;;;9.03;100.00
17525;BME280;40431;52.198;9.902;2023-03-22T04:00:17;100082.06;;;8.98;100.00
17525;BME280;40431;52.198;9.902;2023-03-22T04:02:44;100068.78;;;8.93;100.00
17525;BME280;40431;52.198;9.902;2023-03-22T04:05:10;100073.53;;;8.90;100.00
17525;BME280;40431;52.198;9.902;2023-03-22T04:07:37;100074.97;;;8.81;100.00
17525;BME280;40431;52.198;9.902;2023-03-22T04:10:05;100070.25;;;8.84;100.00
17525;BME280;40431;52.198;9.902;2023-03-22T04:12:32;100069.38;;;8.84;100.00
17525;BME280;40431;52.198;9.902;2023-03-22T04:14:59;100062.25;;;8.83;100.00
17525;BME280;40431;52.198;9.902;2023-03-22T04:17:26;100073.81;;;8.85;100.00
17525;BME280;40431;52.198;9.902;2023-03-22T04:19:53;100064.94;;;8.83;100.00
17525;BME280;40431;52.198;9.902;2023-03-22T04:22:20;100062.41;;;8.80;100.00
17525;BME280;40431;52.198;9.902;2023-03-22T04:24:47;100064.84;;;8.84;100.00
17525;BME280;40431;52.198;9.902;2023-03-22T04:27:14;100050.38;;;8.85;100.00
17525;BME280;40431;52.198;9.902;2023-03-22T04:29:40;100054.78;;;8.86;100.00
17525;BME280;40431;52.198;9.902;2023-03-22T04:32:14;100051.31;;;8.84;100.00
17525;BME280;40431;52.198;9.902;2023-03-22T04:34:43;100055.00;;;8.83;100.00
17525;BME280;40431;52.198;9.902;2023-03-22T04:37:09;100052.97;;;8.87;100.00
17525;BME280;40431;52.198;9.902;2023-03-22T04:39:36;100050.38;;;8.85;100.00
17525;BME280;40431;52.198;9.902;2023-03-22T04:42:02;100050.38;;;8.85;100.00
17525;BME280;40431;52.198;9.902;2023-03-22T04:44:28;100049.59;;;8.83;100.00
17525;BME280;40431;52.198;9.902;2023-03-22T04:46:55;100055.09;;;8.82;100.00
17525;BME280;40431;52.198;9.902;2023-03-22T04:49:23;100056.63;;;8.86;100.00
17525;BME280;40431;52.198;9.902;2023-03-22T04:51:50;100060.03;;;8.90;100.00
17525;BME280;40431;52.198;9.902;2023-03-22T04:54:17;100051.72;;;8.93;100.00
17525;BME280;40431;52.198;9.902;2023-03-22T04:56:43;100058.66;;;8.97;100.00
17525;BME280;40431;52.198;9.902;2023-03-22T04:59:10;100050.56;;;8.97;100.00
17525;BME280;40431;52.198;9.902;2023-03-22T05:01:36;100054.44;;;9.07;100.00
17525;BME280;40431;52.198;9.902;2023-03-22T05:04:05;100062.25;;;9.12;100.00
17525;BME280;40431;52.198;9.902;2023-03-22T05:06:32;100054.03;;;9.13;100.00
17525;BME280;40431;52.198;9.902;2023-03-22T05:08:59;100056.44;;;9.18;100.00
17525;BME280;40431;52.198;9.902;2023-03-22T05:11:26;100055.78;;;9.14;100.00
17525;BME280;40431;52.198;9.902;2023-03-22T05:13:52;100050.34;;;9.14;100.00
17525;BME280;40431;52.198;9.902;2023-03-22T05:16:19;100048.13;;;9.21;100.00
17525;BME280;40431;52.198;9.902;2023-03-22T05:18:45;100045.72;;;9.31;100.00
17525;BME280;40431;52.198;9.902;2023-03-22T05:21:13;100050.16;;;9.32;100.00
17525;BME280;40431;52.198;9.902;2023-03-22T05:23:41;100035.66;;;9.33;100.00
17525;BME280;40431;52.198;9.902;2023-03-22T05:26:09;100032.97;;;9.33;100.00
17525;BME280;40431;52.198;9.902;2023-03-22T05:28:40;100035.66;;;9.33;100.00
17525;BME280;40431;52.198;9.902;2023-03-22T05:31:07;100045.31;;;9.37;100.00
17525;BME280;40431;52.198;9.902;2023-03-22T05:33:35;100042.03;;;9.32;100.00
17525;BME280;40431;52.198;9.902;2023-03-22T05:36:01;100049.19;;;9.33;100.00
17525;BME280;40431;52.198;9.902;2023-03-22T05:38:28;100054.50;;;9.34;100.00
17525;BME280;40431;52.198;9.902;2023-03-22T05:40:55;100054.44;;;9.36;100.00
17525;BME280;40431;52.198;9.902;2023-03-22T05:43:22;100051.72;;;9.36;100.00
17525;BME280;40431;52.198;9.902;2023-03-22T05:45:48;100039.72;;;9.40;100.00
17525;BME280;40431;52.198;9.902;2023-03-22T05:48:15;100039.63;;;9.42;100.00
17525;BME280;40431;52.198;9.902;2023-03-22T05:50:41;100043.41;;;9.39;100.00
17525;BME280;40431;52.198;9.902;2023-03-22T05:53:07;100044.94;;;9.43;100.00
17525;BME280;40431;52.198;9.902;2023-03-22T05:55:36;100038.56;;;9.44;100.00
17525;BME280;40431;52.198;9.902;2023-03-22T05:58:04;100031.19;;;9.46;100.00
17525;BME280;40431;52.198;9.902;2023-03-22T06:00:30;100035.44;;;9.50;100.00
17525;BME280;40431;52.198;9.902;2023-03-22T06:02:57;100032.66;;;9.52;100.00
17525;BME280;40431;52.198;9.902;2023-03-22T06:05:27;100029.63;;;9.57;100.00
17525;BME280;40431;52.198;9.902;2023-03-22T06:07:54;100026.81;;;9.58;100.00
17525;BME280;40431;52.198;9.902;2023-03-22T06:10:20;100029.41;;;9.60;100.00
17525;BME280;40431;52.198;9.902;2023-03-22T06:12:48;100026.81;;;9.58;100.00
17525;BME280;40431;52.198;9.902;2023-03-22T06:15:16;100021.22;;;9.61;100.00
17525;BME280;40431;52.198;9.902;2023-03-22T06:17:43;100023.81;;;9.63;100.00
17525;BME280;40431;52.198;9.902;2023-03-22T06:20:11;100014.94;;;9.61;100.00
17525;BME280;40431;52.198;9.902;2023-03-22T06:22:40;100016.06;;;9.71;100.00
17525;BME280;40431;52.198;9.902;2023-03-22T06:25:08;100021.69;;;9.68;100.00
17525;BME280;40431;52.198;9.902;2023-03-22T06:27:35;100023.34;;;9.71;100.00
17525;BME280;40431;52.198;9.902;2023-03-22T06:30:01;100015.97;;;9.73;100.00
17525;BME280;40431;52.198;9.902;2023-03-22T06:32:29;100022.91;;;9.77;100.00
17525;BME280;40431;52.198;9.902;2023-03-22T06:34:56;100023.22;;;9.72;100.00
17525;BME280;40431;52.198;9.902;2023-03-22T06:37:22;100022.03;;;9.76;100.00
17525;BME280;40431;52.198;9.902;2023-03-22T06:39:49;100023.22;;;9.72;100.00
17525;BME280;40431;52.198;9.902;2023-03-22T06:42:16;100023.00;;;9.75;100.00
17525;BME280;40431;52.198;9.902;2023-03-22T06:44:42;100015.84;;;9.74;100.00
17525;BME280;40431;52.198;9.902;2023-03-22T06:47:09;100015.84;;;9.74;100.00
17525;BME280;40431;52.198;9.902;2023-03-22T06:49:37;100027.34;;;9.78;100.00
17525;BME280;40431;52.198;9.902;2023-03-22T06:52:04;100025.44;;;9.80;100.00
17525;BME280;40431;52.198;9.902;2023-03-22T06:54:30;100023.38;;;9.83;100.00
17525;BME280;40431;52.198;9.902;2023-03-22T06:56:57;100026.63;;;9.89;100.00
17525;BME280;40431;52.198;9.902;2023-03-22T06:59:23;100022.63;;;9.94;100.00
17525;BME280;40431;52.198;9.902;2023-03-22T07:01:50;100010.94;;;9.94;100.00
17525;BME280;40431;52.198;9.902;2023-03-22T07:04:16;100015.97;;;10.00;100.00
17525;BME280;40431;52.198;9.902;2023-03-22T07:06:45;100011.13;;;10.05;100.00
17525;BME280;40431;52.198;9.902;2023-03-22T07:09:12;100016.19;;;10.10;100.00
17525;BME280;40431;52.198;9.902;2023-03-22T07:11:38;100015.13;;;10.12;100.00
17525;BME280;40431;52.198;9.902;2023-03-22T07:14:04;100007.75;;;10.14;100.00
17525;BME280;40431;52.198;9.902;2023-03-22T07:16:31;99996.72;;;10.17;100.00
17525;BME280;40431;52.198;9.902;2023-03-22T07:18:57;99997.06;;;10.26;100.00
17525;BME280;40431;52.198;9.902;2023-03-22T07:21:24;100001.97;;;10.33;100.00
17525;BME280;40431;52.198;9.902;2023-03-22T07:23:52;100003.94;;;10.44;100.00
17525;BME280;40431;52.198;9.902;2023-03-22T07:26:19;100002.47;;;10.53;100.00
17525;BME280;40431;52.198;9.902;2023-03-22T07:28:45;100011.03;;;10.60;100.00
17525;BME280;40431;52.198;9.902;2023-03-22T07:31:12;100007.31;;;10.61;100.00
17525;BME280;40431;52.198;9.902;2023-03-22T07:33:39;99987.38;;;10.62;100.00
17525;BME280;40431;52.198;9.902;2023-03-22T07:36:07;100002.66;;;10.63;100.00
17525;BME280;40431;52.198;9.902;2023-03-22T07:38:34;100005.47;;;10.74;100.00
17525;BME280;40431;52.198;9.902;2023-03-22T07:41:02;100008.97;;;10.89;100.00
17525;BME280;40431;52.198;9.902;2023-03-22T07:43:29;100003.94;;;11.09;100.00
17525;BME280;40431;52.198;9.902;2023-03-22T07:45:55;99996.97;;;11.30;100.00
17525;BME280;40431;52.198;9.902;2023-03-22T07:48:22;99996.47;;;11.49;100.00
17525;BME280;40431;52.198;9.902;2023-03-22T07:50:53;99997.53;;;11.60;100.00
17525;BME280;40431;52.198;9.902;2023-03-22T07:53:19;99995.34;;;11.65;100.00
17525;BME280;40431;52.198;9.902;2023-03-22T07:55:46;99986.72;;;11.71;100.00
17525;BME280;40431;52.198;9.902;2023-03-22T07:58:14;99979.34;;;11.73;100.00
17525;BME280;40431;52.198;9.902;2023-03-22T08:00:40;99978.13;;;11.77;100.00
17525;BME280;40431;52.198;9.902;2023-03-22T08:03:09;99973.53;;;11.78;100.00
17525;BME280;40431;52.198;9.902;2023-03-22T08:05:39;99976.78;;;11.83;100.00
17525;BME280;40431;52.198;9.902;2023-03-22T08:08:05;99970.03;;;11.89;100.00
17525;BME280;40431;52.198;9.902;2023-03-22T08:10:31;99972.31;;;11.95;100.00
17525;BME280;40431;52.198;9.902;2023-03-22T08:12:58;99987.19;;;12.02;100.00
17525;BME280;40431;52.198;9.902;2023-03-22T08:15:26;99974.06;;;12.07;100.00
17525;BME280;40431;52.198;9.902;2023-03-22T08:17:52;99977.44;;;12.11;100.00
17525;BME280;40431;52.198;9.902;2023-03-22T08:20:22;99983.91;;;12.21;100.00
17525;BME280;40431;52.198;9.902;2023-03-22T08:22:51;99984.03;;;12.19;100.00
17525;BME280;40431;52.198;9.902;2023-03-22T08:25:17;99967.94;;;12.16;100.00
17525;BME280;40431;52.198;9.902;2023-03-22T08:27:44;99972.19;;;12.21;100.00
17525;BME280;40431;52.198;9.902;2023-03-22T08:30:12;99964.47;;;12.14;100.00
17525;BME280;40431;52.198;9.902;2023-03-22T08:32:40;99965.97;;;12.18;100.00
17525;BME280;40431;52.198;9.902;2023-03-22T08:35:07;99958.19;;;12.14;100.00
17525;BME280;40431;52.198;9.902;2023-03-22T08:37:34;99957.31;;;12.13;100.00
17525;BME280;40431;52.198;9.902;2023-03-22T08:40:00;99946.19;;;12.16;100.00
17525;BME280;40431;52.198;9.902;2023-03-22T08:42:29;99941.28;;;12.22;100.00
17525;BME280;40431;52.198;9.902;2023-03-22T08:44:55;99935.38;;;12.28;100.00
17525;BME280;40431;52.198;9.902;2023-03-22T08:47:21;99932.13;;;12.23;100.00
17525;BME280;40431;52.198;9.902;2023-03-22T08:49:49;99933.50;;;12.28;100.00
17525;BME280;40431;52.198;9.902;2023-03-22T08:52:15;99923.50;;;12.29;100.00
17525;BME280;40431;52.198;9.902;2023-03-22T08:54:42;99934.78;;;12.35;100.00
17525;BME280;40431;52.198;9.902;2023-03-22T08:57:09;99933.88;;;12.35;100.00
17525;BME280;40431;52.198;9.902;2023-03-22T08:59:36;99925.38;;;12.40;100.00
17525;BME280;40431;52.198;9.902;2023-03-22T09:02:02;99925.25;;;12.41;100.00
17525;BME280;40431;52.198;9.902;2023-03-22T09:04:28;99905.25;;;12.42;100.00
17525;BME280;40431;52.198;9.902;2023-03-22T09:06:56;99910.69;;;12.42;100.00
17525;BME280;40431;52.198;9.902;2023-03-22T09:09:22;99902.28;;;12.45;100.00
17525;BME280;40431;52.198;9.902;2023-03-22T09:11:49;99904.00;;;12.46;100.00
17525;BME280;40431;52.198;9.902;2023-03-22T09:14:15;99917.47;;;12.48;100.00
17525;BME280;40431;52.198;9.902;2023-03-22T09:16:42;99908.72;;;12.56;100.00
17525;BME280;40431;52.198;9.902;2023-03-22T09:19:09;99897.59;;;12.59;100.00
17525;BME280;40431;52.198;9.902;2023-03-22T09:21:36;99904.50;;;12.63;100.00
17525;BME280;40431;52.198;9.902;2023-03-22T09:24:05;99886.22;;;12.65;100.00
17525;BME280;40431;52.198;9.902;2023-03-22T09:26:31;99896.50;;;12.73;99.58
17525;BME280;40431;52.198;9.902;2023-03-22T09:28:57;99885.09;;;12.79;99.24
17525;BME280;40431;52.198;9.902;2023-03-22T09:31:24;99889.69;;;12.78;96.00
17525;BME280;40431;52.198;9.902;2023-03-22T09:33:50;99882.13;;;12.82;96.52
17525;BME280;40431;52.198;9.902;2023-03-22T09:36:17;99880.78;;;12.88;96.99
17525;BME280;40431;52.198;9.902;2023-03-22T09:38:44;99877.78;;;12.91;94.64
17525;BME280;40431;52.198;9.902;2023-03-22T09:41:16;99874.56;;;12.97;95.61
17525;BME280;40431;52.198;9.902;2023-03-22T09:43:47;99874.44;;;12.98;93.41
17525;BME280;40431;52.198;9.902;2023-03-22T09:46:19;99864.41;;;12.99;92.78
17525;BME280;40431;52.198;9.902;2023-03-22T09:48:50;99869.84;;;12.99;93.33
17525;BME280;40431;52.198;9.902;2023-03-22T09:51:29;99867.03;;;13.00;93.55
17525;BME280;40431;52.198;9.902;2023-03-22T09:53:58;99874.09;;;13.03;92.76
17525;BME280;40431;52.198;9.902;2023-03-22T09:56:28;99870.34;;;13.04;92.89
17525;BME280;40431;52.198;9.902;2023-03-22T09:59:02;99862.81;;;13.08;92.93
17525;BME280;40431;52.198;9.902;2023-03-22T10:01:36;99858.59;;;13.03;92.27
17525;BME280;40431;52.198;9.902;2023-03-22T10:04:18;99857.72;;;13.14;89.84
17525;BME280;40431;52.198;9.902;2023-03-22T10:06:56;99859.66;;;13.24;90.12
17525;BME280;40431;52.198;9.902;2023-03-22T10:09:30;99847.28;;;13.31;92.54
17525;BME280;40431;52.198;9.902;2023-03-22T10:12:06;99857.91;;;13.34;89.40
17525;BME280;40431;52.198;9.902;2023-03-22T10:14:38;99864.34;;;13.33;88.40
17525;BME280;40431;52.198;9.902;2023-03-22T10:17:09;99858.66;;;13.36;89.71
17525;BME280;40431;52.198;9.902;2023-03-22T10:19:42;99859.50;;;13.48;88.05
17525;BME280;40431;52.198;9.902;2023-03-22T10:22:15;99867.06;;;13.44;85.64
17525;BME280;40431;52.198;9.902;2023-03-22T10:24:44;99848.72;;;13.46;85.45
17525;BME280;40431;52.198;9.902;2023-03-22T10:27:16;99843.63;;;13.53;84.42
17525;BME280;40431;52.198;9.902;2023-03-22T10:29:45;99836.78;;;13.59;84.00
17525;BME280;40431;52.198;9.902;2023-03-22T10:32:14;99846.91;;;13.68;87.23
17525;BME280;40431;52.198;9.902;2023-03-22T10:34:42;99843.78;;;13.73;87.52
17525;BME280;40431;52.198;9.902;2023-03-22T10:37:13;99850.06;;;13.84;85.79
17525;BME280;40431;52.198;9.902;2023-03-22T10:39:43;99839.88;;;13.86;85.41
17525;BME280;40431;52.198;9.902;2023-03-22T10:42:14;99847.25;;;13.96;85.67
17525;BME280;40431;52.198;9.902;2023-03-22T10:44:46;99835.09;;;14.00;84.25
17525;BME280;40431;52.198;9.902;2023-03-22T10:47:14;99844.84;;;14.02;83.92
17525;BME280;40431;52.198;9.902;2023-03-22T10:49:44;99843.88;;;14.03;83.57
17525;BME280;40431;52.198;9.902;2023-03-22T10:52:21;99835.22;;;13.98;81.92
17525;BME280;40431;52.198;9.902;2023-03-22T10:54:50;99840.09;;;13.95;83.14
17525;BME280;40431;52.198;9.902;2023-03-22T10:57:18;99852.50;;;13.88;81.67
17525;BME280;40431;52.198;9.902;2023-03-22T10:59:46;99849.78;;;13.88;80.66
17525;BME280;40431;52.198;9.902;2023-03-22T11:02:17;99855.38;;;13.86;81.70
17525;BME280;40431;52.198;9.902;2023-03-22T11:04:47;99846.41;;;13.95;81.05
17525;BME280;40431;52.198;9.902;2023-03-22T11:07:15;99831.22;;;14.02;81.84
17525;BME280;40431;52.198;9.902;2023-03-22T11:09:57;99837.75;;;14.11;79.90
17525;BME280;40431;52.198;9.902;2023-03-22T11:12:24;99826.31;;;14.17;77.76
17525;BME280;40431;52.198;9.902;2023-03-22T11:14:51;99826.19;;;14.19;77.58
17525;BME280;40431;52.198;9.902;2023-03-22T11:17:19;99829.56;;;14.11;79.00
17525;BME280;40431;52.198;9.902;2023-03-22T11:19:51;99808.50;;;14.13;78.10
17525;BME280;40431;52.198;9.902;2023-03-22T11:22:23;99817.13;;;14.18;79.57
17525;BME280;40431;52.198;9.902;2023-03-22T11:24:51;99811.13;;;14.25;78.50
17525;BME280;40431;52.198;9.902;2023-03-22T11:27:23;99814.59;;;14.27;77.68
17525;BME280;40431;52.198;9.902;2023-03-22T11:29:53;99808.13;;;14.28;77.60
17525;BME280;40431;52.198;9.902;2023-03-22T11:32:21;99809.16;;;14.27;76.45
17525;BME280;40431;52.198;9.902;2023-03-22T11:34:58;99800.50;;;14.22;77.28
17525;BME280;40431;52.198;9.902;2023-03-22T11:37:24;99792.50;;;14.30;76.38
17525;BME280;40431;52.198;9.902;2023-03-22T11:39:58;99798.88;;;14.40;77.97
17525;BME280;40431;52.198;9.902;2023-03-22T11:42:25;99801.78;;;14.48;77.21
17525;BME280;40431;52.198;9.902;2023-03-22T11:44:54;99801.22;;;14.55;75.52
17525;BME280;40431;52.198;9.902;2023-03-22T11:47:24;99803.22;;;14.52;75.88
17525;BME280;40431;52.198;9.902;2023-03-22T11:49:51;99804.53;;;14.58;76.85
17525;BME280;40431;52.198;9.902;2023-03-22T11:52:22;99800.78;;;14.59;77.58
17525;BME280;40431;52.198;9.902;2023-03-22T11:54:50;99802.13;;;14.65;78.12
17525;BME280;40431;52.198;9.902;2023-03-22T11:57:19;99812.22;;;14.74;78.18
17525;BME280;40431;52.198;9.902;2023-03-22T11:59:49;99802.50;;;14.81;77.07
17525;BME280;40431;52.198;9.902;2023-03-22T12:02:24;99801.50;;;14.82;76.36
17525;BME280;40431;52.198;9.902;2023-03-22T12:04:56;99805.22;;;14.81;76.91
17525;BME280;40431;52.198;9.902;2023-03-22T12:07:27;99814.56;;;14.89;76.32
17525;BME280;40431;52.198;9.902;2023-03-22T12:09:57;99807.22;;;14.79;75.42
17525;BME280;40431;52.198;9.902;2023-03-22T12:12:28;99806.50;;;14.77;74.82
17525;BME280;40431;52.198;9.902;2023-03-22T12:14:59;99803.03;;;14.65;75.89
17525;BME280;40431;52.198;9.902;2023-03-22T12:17:33;99800.44;;;14.64;76.65
17525;BME280;40431;52.198;9.902;2023-03-22T12:20:04;99807.59;;;14.65;75.86
17525;BME280;40431;52.198;9.902;2023-03-22T12:22:34;99803.16;;;14.64;75.77
17525;BME280;40431;52.198;9.902;2023-03-22T12:25:10;99795.50;;;14.58;75.33
17525;BME280;40431;52.198;9.902;2023-03-22T12:27:39;99793.03;;;14.55;75.33
17525;BME280;40431;52.198;9.902;2023-03-22T12:30:11;99800.94;;;14.58;76.20
17525;BME280;40431;52.198;9.902;2023-03-22T12:32:44;99793.34;;;14.61;76.65
17525;BME280;40431;52.198;9.902;2023-03-22T12:35:17;99802.72;;;14.68;75.73
17525;BME280;40431;52.198;9.902;2023-03-22T12:37:48;99809.91;;;14.69;75.67
17525;BME280;40431;52.198;9.902;2023-03-22T12:40:23;99809.03;;;14.69;75.76
17525;BME280;40431;52.198;9.902;2023-03-22T12:42:58;99797.28;;;14.68;75.74
17525;BME280;40431;52.198;9.902;2023-03-22T12:45:28;99800.44;;;14.64;75.98
17525;BME280;40431;52.198;9.902;2023-03-22T12:48:01;99799.41;;;14.65;76.91
17525;BME280;40431;52.198;9.902;2023-03-22T12:50:33;99794.16;;;14.73;78.20
17525;BME280;40431;52.198;9.902;2023-03-22T12:53:01;99798.16;;;14.79;76.62
17525;BME280;40431;52.198;9.902;2023-03-22T12:55:30;99795.13;;;14.72;75.72
17525;BME280;40431;52.198;9.902;2023-03-22T12:57:58;99796.41;;;14.68;75.31
17525;BME280;40431;52.198;9.902;2023-03-22T13:00:26;99791.22;;;14.65;74.33
17525;BME280;40431;52.198;9.902;2023-03-22T13:02:59;99792.94;;;14.66;75.41
17525;BME280;40431;52.198;9.902;2023-03-22T13:05:28;99789.22;;;14.67;75.75